sensor_id;sensor_type;location;lat;lon;timestamp;temperature;humidity
7366;DHT22;3723;52.220;8.792;2024-03-08T00:00:05;-1.90;97.40
7366;DHT22;3723;52.220;8.792;2024-03-08T00:02:36;-1.90;84.80
7366;DHT22;3723;52.220;8.792;2024-03-08T00:05:04;-2.10;60.20
7366;DHT22;3723;52.220;8.792;2024-03-08T00:07:31;-2.20;35.80
7366;DHT22;3723;52.220;8.792;2024-03-08T00:09:58;-2.30;39.80
7366;DHT22;3723;52.220;8.792;2024-03-08T00:12:24;-2.40;50.00
7366;DHT22;3723;52.220;8.792;2024-03-08T00:14:52;-2.40;53.80
7366;DHT22;3723;52.220;8.792;2024-03-08T00:17:20;-2.50;80.60
7366;DHT22;3723;52.220;8.792;2024-03-08T00:19:49;-2.50;95.70
7366;DHT22;3723;52.220;8.792;2024-03-08T00:22:18;-2.40;99.90
7366;DHT22;3723;52.220;8.792;2024-03-08T00:24:45;-2.40;99.90
7366;DHT22;3723;52.220;8.792;2024-03-08T00:27:11;-2.50;99.90
7366;DHT22;3723;52.220;8.792;2024-03-08T00:29:38;-2.50;99.90
7366;DHT22;3723;52.220;8.792;2024-03-08T00:32:05;-2.60;99.90
7366;DHT22;3723;52.220;8.792;2024-03-08T00:34:35;-2.70;97.60
7366;DHT22;3723;52.220;8.792;2024-03-08T00:37:04;-2.70;99.90
7366;DHT22;3723;52.220;8.792;2024-03-08T00:39:31;-2.70;99.90
7366;DHT22;3723;52.220;8.792;2024-03-08T00:41:59;-2.60;99.90
7366;DHT22;3723;52.220;8.792;2024-03-08T00:44:26;-2.60;99.90
7366;DHT22;3723;52.220;8.792;2024-03-08T00:46:52;-2.50;99.90
7366;DHT22;3723;52.220;8.792;2024-03-08T00:49:19;-2.40;99.90
7366;DHT22;3723;52.220;8.792;2024-03-08T00:51:47;-2.30;99.90
7366;DHT22;3723;52.220;8.792;2024-03-08T00:54:15;-2.20;99.90
7366;DHT22;3723;52.220;8.792;2024-03-08T00:56:42;-2.00;99.90
7366;DHT22;3723;52.220;8.792;2024-03-08T00:59:10;-2.00;99.90
7366;DHT22;3723;52.220;8.792;2024-03-08T01:01:36;-1.90;99.90
7366;DHT22;3723;52.220;8.792;2024-03-08T01:04:03;-1.80;99.90
7366;DHT22;3723;52.220;8.792;2024-03-08T01:06:30;-1.80;99.90
7366;DHT22;3723;52.220;8.792;2024-03-08T01:08:57;-1.70;99.90
7366;DHT22;3723;52.220;8.792;2024-03-08T01:11:25;-1.70;99.90
7366;DHT22;3723;52.220;8.792;2024-03-08T01:13:53;-1.70;99.90
7366;DHT22;3723;52.220;8.792;2024-03-08T01:16:20;-1.70;99.90
7366;DHT22;3723;52.220;8.792;2024-03-08T01:18:47;-1.80;99.90
7366;DHT22;3723;52.220;8.792;2024-03-08T01:21:14;-2.00;99.90
7366;DHT22;3723;52.220;8.792;2024-03-08T01:23:41;-2.20;99.90
7366;DHT22;3723;52.220;8.792;2024-03-08T01:26:08;-2.30;99.90
7366;DHT22;3723;52.220;8.792;2024-03-08T01:28:36;-2.40;99.90
7366;DHT22;3723;52.220;8.792;2024-03-08T01:31:03;-2.40;99.90
7366;DHT22;3723;52.220;8.792;2024-03-08T01:33:31;-2.50;99.90
7366;DHT22;3723;52.220;8.792;2024-03-08T01:35:58;-2.60;99.90
7366;DHT22;3723;52.220;8.792;2024-03-08T01:38:25;-2.80;99.90
7366;DHT22;3723;52.220;8.792;2024-03-08T01:40:52;-2.90;99.90
7366;DHT22;3723;52.220;8.792;2024-03-08T01:43:19;-2.90;99.90
7366;DHT22;3723;52.220;8.792;2024-03-08T01:45:48;-2.90;99.90
7366;DHT22;3723;52.220;8.792;2024-03-08T01:48:15;-2.80;99.90
7366;DHT22;3723;52.220;8.792;2024-03-08T01:50:44;-2.70;99.90
7366;DHT22;3723;52.220;8.792;2024-03-08T01:53:11;-2.70;1.00
7366;DHT22;3723;52.220;8.792;2024-03-08T01:55:40;-2.50;1.00
7366;DHT22;3723;52.220;8.792;2024-03-08T01:58:09;-2.40;1.00
7366;DHT22;3723;52.220;8.792;2024-03-08T02:00:38;-2.40;1.00
7366;DHT22;3723;52.220;8.792;2024-03-08T02:03:08;-2.40;1.00
7366;DHT22;3723;52.220;8.792;2024-03-08T02:05:35;-2.40;1.00
7366;DHT22;3723;52.220;8.792;2024-03-08T02:08:04;-2.40;1.00
7366;DHT22;3723;52.220;8.792;2024-03-08T02:10:32;-2.40;1.00
7366;DHT22;3723;52.220;8.792;2024-03-08T02:12:59;-2.40;1.00
7366;DHT22;3723;52.220;8.792;2024-03-08T02:15:52;-2.30;1.00
7366;DHT22;3723;52.220;8.792;2024-03-08T02:18:21;-2.30;1.00
7366;DHT22;3723;52.220;8.792;2024-03-08T02:20:51;-2.30;1.00
7366;DHT22;3723;52.220;8.792;2024-03-08T02:23:18;-2.30;1.00
7366;DHT22;3723;52.220;8.792;2024-03-08T02:25:45;-2.30;1.00
7366;DHT22;3723;52.220;8.792;2024-03-08T02:28:12;-2.40;1.00
7366;DHT22;3723;52.220;8.792;2024-03-08T02:30:39;-2.40;1.00
7366;DHT22;3723;52.220;8.792;2024-03-08T02:33:07;-2.40;1.00
7366;DHT22;3723;52.220;8.792;2024-03-08T02:35:35;-2.40;1.00
7366;DHT22;3723;52.220;8.792;2024-03-08T02:38:03;-2.40;1.00
7366;DHT22;3723;52.220;8.792;2024-03-08T02:40:30;-2.30;1.00
7366;DHT22;3723;52.220;8.792;2024-03-08T02:42:57;-2.40;1.00
7366;DHT22;3723;52.220;8.792;2024-03-08T02:45:24;-2.50;1.00
7366;DHT22;3723;52.220;8.792;2024-03-08T02:47:51;-2.60;1.00
7366;DHT22;3723;52.220;8.792;2024-03-08T02:50:18;-2.70;1.00
7366;DHT22;3723;52.220;8.792;2024-03-08T02:52:45;-2.90;1.00
7366;DHT22;3723;52.220;8.792;2024-03-08T02:55:14;-3.00;1.00
7366;DHT22;3723;52.220;8.792;2024-03-08T02:57:42;-3.20;1.00
7366;DHT22;3723;52.220;8.792;2024-03-08T03:00:10;-3.30;1.00
7366;DHT22;3723;52.220;8.792;2024-03-08T03:02:37;-3.40;1.00
7366;DHT22;3723;52.220;8.792;2024-03-08T03:05:04;-3.50;1.00
7366;DHT22;3723;52.220;8.792;2024-03-08T03:07:32;-3.50;1.00
7366;DHT22;3723;52.220;8.792;2024-03-08T03:09:59;-3.50;1.00
7366;DHT22;3723;52.220;8.792;2024-03-08T03:12:29;-3.50;1.00
7366;DHT22;3723;52.220;8.792;2024-03-08T03:14:56;-3.50;1.00
7366;DHT22;3723;52.220;8.792;2024-03-08T03:17:23;-3.60;99.90
7366;DHT22;3723;52.220;8.792;2024-03-08T03:19:50;-3.70;99.90
7366;DHT22;3723;52.220;8.792;2024-03-08T03:22:17;-3.80;99.90
7366;DHT22;3723;52.220;8.792;2024-03-08T03:24:44;-3.80;99.90
7366;DHT22;3723;52.220;8.792;2024-03-08T03:27:11;-3.90;99.90
7366;DHT22;3723;52.220;8.792;2024-03-08T03:29:40;-4.00;99.90
7366;DHT22;3723;52.220;8.792;2024-03-08T03:32:07;-4.00;99.90
7366;DHT22;3723;52.220;8.792;2024-03-08T03:34:34;-4.00;99.90
7366;DHT22;3723;52.220;8.792;2024-03-08T03:37:02;-4.00;99.90
7366;DHT22;3723;52.220;8.792;2024-03-08T03:39:29;-4.00;99.90
7366;DHT22;3723;52.220;8.792;2024-03-08T03:41:57;-3.90;1.00
7366;DHT22;3723;52.220;8.792;2024-03-08T03:44:24;-3.80;1.00
7366;DHT22;3723;52.220;8.792;2024-03-08T03:46:52;-3.70;1.00
7366;DHT22;3723;52.220;8.792;2024-03-08T03:49:19;-3.60;1.00
7366;DHT22;3723;52.220;8.792;2024-03-08T03:51:46;-3.40;1.00
7366;DHT22;3723;52.220;8.792;2024-03-08T03:54:13;-3.20;1.00
7366;DHT22;3723;52.220;8.792;2024-03-08T03:56:39;-2.90;1.00
7366;DHT22;3723;52.220;8.792;2024-03-08T03:59:06;-2.80;1.00
7366;DHT22;3723;52.220;8.792;2024-03-08T04:01:34;-2.70;1.00
7366;DHT22;3723;52.220;8.792;2024-03-08T04:04:02;-2.70;1.00
7366;DHT22;3723;52.220;8.792;2024-03-08T04:06:30;-2.80;1.00
7366;DHT22;3723;52.220;8.792;2024-03-08T04:08:57;-2.90;1.00
7366;DHT22;3723;52.220;8.792;2024-03-08T04:11:24;-3.00;1.00
7366;DHT22;3723;52.220;8.792;2024-03-08T04:13:51;-3.10;1.00
7366;DHT22;3723;52.220;8.792;2024-03-08T04:16:18;-3.20;1.00
7366;DHT22;3723;52.220;8.792;2024-03-08T04:18:44;-3.30;1.00
7366;DHT22;3723;52.220;8.792;2024-03-08T04:21:14;-3.40;1.00
7366;DHT22;3723;52.220;8.792;2024-03-08T04:23:41;-3.60;99.90
7366;DHT22;3723;52.220;8.792;2024-03-08T04:26:10;-3.70;99.90
7366;DHT22;3723;52.220;8.792;2024-03-08T04:28:38;-3.70;99.90
7366;DHT22;3723;52.220;8.792;2024-03-08T04:31:05;-3.90;99.90
7366;DHT22;3723;52.220;8.792;2024-03-08T04:33:32;-3.90;99.90
7366;DHT22;3723;52.220;8.792;2024-03-08T04:36:01;-4.00;99.90
7366;DHT22;3723;52.220;8.792;2024-03-08T04:38:31;-4.10;99.90
7366;DHT22;3723;52.220;8.792;2024-03-08T04:40:58;-4.20;99.90
7366;DHT22;3723;52.220;8.792;2024-03-08T04:43:28;-4.30;99.90
7366;DHT22;3723;52.220;8.792;2024-03-08T04:45:56;-4.30;99.90
7366;DHT22;3723;52.220;8.792;2024-03-08T04:48:24;-4.30;99.90
7366;DHT22;3723;52.220;8.792;2024-03-08T04:50:52;-4.20;99.90
7366;DHT22;3723;52.220;8.792;2024-03-08T04:53:19;-4.10;99.90
7366;DHT22;3723;52.220;8.792;2024-03-08T04:55:47;-4.10;99.90
7366;DHT22;3723;52.220;8.792;2024-03-08T04:58:14;-4.10;99.90
7366;DHT22;3723;52.220;8.792;2024-03-08T05:00:41;-4.00;99.90
7366;DHT22;3723;52.220;8.792;2024-03-08T05:03:09;-4.00;99.90
7366;DHT22;3723;52.220;8.792;2024-03-08T05:05:36;-3.90;1.00
7366;DHT22;3723;52.220;8.792;2024-03-08T05:08:03;-3.80;1.00
7366;DHT22;3723;52.220;8.792;2024-03-08T05:10:30;-3.70;1.00
7366;DHT22;3723;52.220;8.792;2024-03-08T05:12:59;-3.60;1.00
7366;DHT22;3723;52.220;8.792;2024-03-08T05:15:26;-3.50;1.00
7366;DHT22;3723;52.220;8.792;2024-03-08T05:17:53;-3.40;1.00
7366;DHT22;3723;52.220;8.792;2024-03-08T05:20:21;-3.30;1.00
7366;DHT22;3723;52.220;8.792;2024-03-08T05:22:48;-3.20;1.00
7366;DHT22;3723;52.220;8.792;2024-03-08T05:25:15;-3.20;1.00
7366;DHT22;3723;52.220;8.792;2024-03-08T05:27:43;-3.10;1.00
7366;DHT22;3723;52.220;8.792;2024-03-08T05:30:11;-2.90;1.00
7366;DHT22;3723;52.220;8.792;2024-03-08T05:32:40;-2.90;1.00
7366;DHT22;3723;52.220;8.792;2024-03-08T05:35:10;-2.80;1.00
7366;DHT22;3723;52.220;8.792;2024-03-08T05:37:38;-2.80;1.00
7366;DHT22;3723;52.220;8.792;2024-03-08T05:40:06;-2.70;1.00
7366;DHT22;3723;52.220;8.792;2024-03-08T05:42:35;-2.70;1.00
7366;DHT22;3723;52.220;8.792;2024-03-08T05:45:03;-2.70;1.00
7366;DHT22;3723;52.220;8.792;2024-03-08T05:47:31;-2.80;1.00
7366;DHT22;3723;52.220;8.792;2024-03-08T05:49:58;-2.80;1.00
7366;DHT22;3723;52.220;8.792;2024-03-08T05:52:25;-2.80;1.00
7366;DHT22;3723;52.220;8.792;2024-03-08T05:54:52;-3.00;1.00
7366;DHT22;3723;52.220;8.792;2024-03-08T05:57:19;-3.00;1.00
7366;DHT22;3723;52.220;8.792;2024-03-08T05:59:48;-3.10;1.00
7366;DHT22;3723;52.220;8.792;2024-03-08T06:02:14;-3.20;1.00
7366;DHT22;3723;52.220;8.792;2024-03-08T06:04:46;-3.20;1.00
7366;DHT22;3723;52.220;8.792;2024-03-08T06:07:13;-3.30;1.00
7366;DHT22;3723;52.220;8.792;2024-03-08T06:09:40;-3.30;1.00
7366;DHT22;3723;52.220;8.792;2024-03-08T06:12:10;-3.20;1.00
7366;DHT22;3723;52.220;8.792;2024-03-08T06:14:37;-3.10;1.00
7366;DHT22;3723;52.220;8.792;2024-03-08T06:17:04;-3.10;1.00
7366;DHT22;3723;52.220;8.792;2024-03-08T06:19:32;-3.00;1.00
7366;DHT22;3723;52.220;8.792;2024-03-08T06:22:01;-2.90;1.00
7366;DHT22;3723;52.220;8.792;2024-03-08T06:24:31;-2.70;1.00
7366;DHT22;3723;52.220;8.792;2024-03-08T06:26:57;-2.40;1.00
7366;DHT22;3723;52.220;8.792;2024-03-08T06:29:24;-2.10;25.00
7366;DHT22;3723;52.220;8.792;2024-03-08T06:31:51;-1.80;99.90
7366;DHT22;3723;52.220;8.792;2024-03-08T06:34:19;-1.30;99.90
7366;DHT22;3723;52.220;8.792;2024-03-08T06:36:45;-1.10;99.90
7366;DHT22;3723;52.220;8.792;2024-03-08T06:39:13;-0.80;99.90
7366;DHT22;3723;52.220;8.792;2024-03-08T06:41:40;-0.50;99.90
7366;DHT22;3723;52.220;8.792;2024-03-08T06:44:09;-0.30;99.90
7366;DHT22;3723;52.220;8.792;2024-03-08T06:46:37;0.00;99.90
7366;DHT22;3723;52.220;8.792;2024-03-08T06:49:04;0.20;99.90
7366;DHT22;3723;52.220;8.792;2024-03-08T06:51:32;0.50;99.90
7366;DHT22;3723;52.220;8.792;2024-03-08T06:53:59;0.70;99.90
7366;DHT22;3723;52.220;8.792;2024-03-08T06:56:27;0.90;99.90
7366;DHT22;3723;52.220;8.792;2024-03-08T06:58:55;1.10;99.90
7366;DHT22;3723;52.220;8.792;2024-03-08T07:01:22;1.40;99.90
7366;DHT22;3723;52.220;8.792;2024-03-08T07:03:48;1.60;99.90
7366;DHT22;3723;52.220;8.792;2024-03-08T07:06:18;1.60;99.90
7366;DHT22;3723;52.220;8.792;2024-03-08T07:08:45;1.90;99.90
7366;DHT22;3723;52.220;8.792;2024-03-08T07:11:14;2.10;99.90
7366;DHT22;3723;52.220;8.792;2024-03-08T07:13:45;2.30;99.90
7366;DHT22;3723;52.220;8.792;2024-03-08T07:16:12;2.50;99.90
7366;DHT22;3723;52.220;8.792;2024-03-08T07:18:39;2.70;32.00
7366;DHT22;3723;52.220;8.792;2024-03-08T07:21:08;2.80;1.00
7366;DHT22;3723;52.220;8.792;2024-03-08T07:23:35;2.90;1.00
7366;DHT22;3723;52.220;8.792;2024-03-08T07:26:22;3.10;1.00
7366;DHT22;3723;52.220;8.792;2024-03-08T07:28:50;3.00;99.90
7366;DHT22;3723;52.220;8.792;2024-03-08T07:31:17;3.20;48.80
7366;DHT22;3723;52.220;8.792;2024-03-08T07:33:52;3.30;1.00
7366;DHT22;3723;52.220;8.792;2024-03-08T07:36:19;3.30;1.00
7366;DHT22;3723;52.220;8.792;2024-03-08T07:38:47;3.20;1.00
7366;DHT22;3723;52.220;8.792;2024-03-08T07:41:16;3.20;1.00
7366;DHT22;3723;52.220;8.792;2024-03-08T07:43:43;3.30;1.00
7366;DHT22;3723;52.220;8.792;2024-03-08T07:46:11;3.40;1.00
7366;DHT22;3723;52.220;8.792;2024-03-08T07:48:40;3.50;1.00
7366;DHT22;3723;52.220;8.792;2024-03-08T07:51:08;3.90;1.00
7366;DHT22;3723;52.220;8.792;2024-03-08T07:53:35;4.10;1.00
7366;DHT22;3723;52.220;8.792;2024-03-08T07:56:04;4.20;1.00
7366;DHT22;3723;52.220;8.792;2024-03-08T07:58:31;4.50;1.00
7366;DHT22;3723;52.220;8.792;2024-03-08T08:00:58;4.60;1.00
7366;DHT22;3723;52.220;8.792;2024-03-08T08:03:26;4.80;1.00
7366;DHT22;3723;52.220;8.792;2024-03-08T08:05:53;4.90;1.00
7366;DHT22;3723;52.220;8.792;2024-03-08T08:08:20;5.20;1.00
7366;DHT22;3723;52.220;8.792;2024-03-08T08:10:47;5.20;1.00
7366;DHT22;3723;52.220;8.792;2024-03-08T08:13:15;5.20;1.00
7366;DHT22;3723;52.220;8.792;2024-03-08T08:15:42;5.20;1.00
7366;DHT22;3723;52.220;8.792;2024-03-08T08:18:09;5.40;1.00
7366;DHT22;3723;52.220;8.792;2024-03-08T08:20:37;5.50;1.00
7366;DHT22;3723;52.220;8.792;2024-03-08T08:23:04;5.50;1.00
7366;DHT22;3723;52.220;8.792;2024-03-08T08:25:31;5.60;1.00
7366;DHT22;3723;52.220;8.792;2024-03-08T08:28:00;5.60;1.00
7366;DHT22;3723;52.220;8.792;2024-03-08T08:30:39;5.60;1.00
7366;DHT22;3723;52.220;8.792;2024-03-08T08:33:06;5.70;1.00
7366;DHT22;3723;52.220;8.792;2024-03-08T08:35:34;5.80;1.00
7366;DHT22;3723;52.220;8.792;2024-03-08T08:38:02;5.80;1.00
7366;DHT22;3723;52.220;8.792;2024-03-08T08:40:30;5.80;1.00
7366;DHT22;3723;52.220;8.792;2024-03-08T08:42:57;5.80;1.00
7366;DHT22;3723;52.220;8.792;2024-03-08T08:45:25;5.80;99.90
7366;DHT22;3723;52.220;8.792;2024-03-08T08:47:52;6.00;1.00
7366;DHT22;3723;52.220;8.792;2024-03-08T08:50:20;6.50;1.00
7366;DHT22;3723;52.220;8.792;2024-03-08T08:52:49;6.50;99.90
7366;DHT22;3723;52.220;8.792;2024-03-08T08:55:17;6.50;99.90
7366;DHT22;3723;52.220;8.792;2024-03-08T08:57:46;6.60;99.90
7366;DHT22;3723;52.220;8.792;2024-03-08T09:00:14;6.70;99.90
7366;DHT22;3723;52.220;8.792;2024-03-08T09:02:41;6.90;99.90
7366;DHT22;3723;52.220;8.792;2024-03-08T09:05:12;7.10;99.90
7366;DHT22;3723;52.220;8.792;2024-03-08T09:07:42;7.30;99.90
7366;DHT22;3723;52.220;8.792;2024-03-08T09:10:10;7.30;99.90
7366;DHT22;3723;52.220;8.792;2024-03-08T09:12:39;7.20;99.90
7366;DHT22;3723;52.220;8.792;2024-03-08T09:15:06;7.50;99.90
7366;DHT22;3723;52.220;8.792;2024-03-08T09:17:36;7.70;99.90
7366;DHT22;3723;52.220;8.792;2024-03-08T09:20:06;7.80;99.90
7366;DHT22;3723;52.220;8.792;2024-03-08T09:22:34;7.80;99.90
7366;DHT22;3723;52.220;8.792;2024-03-08T09:25:00;8.20;99.90
7366;DHT22;3723;52.220;8.792;2024-03-08T09:27:27;8.30;99.90
7366;DHT22;3723;52.220;8.792;2024-03-08T09:29:55;8.60;99.90
7366;DHT22;3723;52.220;8.792;2024-03-08T09:32:22;8.60;99.90
7366;DHT22;3723;52.220;8.792;2024-03-08T09:34:49;8.70;99.90
7366;DHT22;3723;52.220;8.792;2024-03-08T09:37:16;8.80;99.90
7366;DHT22;3723;52.220;8.792;2024-03-08T09:39:44;9.00;99.90
7366;DHT22;3723;52.220;8.792;2024-03-08T09:42:11;9.10;99.90
7366;DHT22;3723;52.220;8.792;2024-03-08T09:44:44;9.00;99.90
7366;DHT22;3723;52.220;8.792;2024-03-08T09:47:13;9.00;99.90
7366;DHT22;3723;52.220;8.792;2024-03-08T09:49:41;9.10;99.90
7366;DHT22;3723;52.220;8.792;2024-03-08T09:52:09;9.10;99.90
7366;DHT22;3723;52.220;8.792;2024-03-08T09:54:37;8.90;99.90
7366;DHT22;3723;52.220;8.792;2024-03-08T09:57:04;8.80;99.90
7366;DHT22;3723;52.220;8.792;2024-03-08T09:59:34;9.10;99.90
7366;DHT22;3723;52.220;8.792;2024-03-08T10:02:16;9.30;99.90
7366;DHT22;3723;52.220;8.792;2024-03-08T10:04:43;9.10;99.90
7366;DHT22;3723;52.220;8.792;2024-03-08T10:07:12;9.00;99.90
7366;DHT22;3723;52.220;8.792;2024-03-08T10:12:08;9.40;99.90
7366;DHT22;3723;52.220;8.792;2024-03-08T10:14:39;9.60;99.90
7366;DHT22;3723;52.220;8.792;2024-03-08T10:17:06;9.60;99.90
7366;DHT22;3723;52.220;8.792;2024-03-08T10:19:35;9.80;99.90
7366;DHT22;3723;52.220;8.792;2024-03-08T10:22:01;10.10;99.90
7366;DHT22;3723;52.220;8.792;2024-03-08T10:24:30;10.50;99.90
7366;DHT22;3723;52.220;8.792;2024-03-08T10:26:59;10.70;99.90
7366;DHT22;3723;52.220;8.792;2024-03-08T10:29:27;10.70;99.90
7366;DHT22;3723;52.220;8.792;2024-03-08T10:31:54;10.60;99.90
7366;DHT22;3723;52.220;8.792;2024-03-08T10:34:22;10.50;99.90
7366;DHT22;3723;52.220;8.792;2024-03-08T10:36:52;10.40;99.90
7366;DHT22;3723;52.220;8.792;2024-03-08T10:39:22;10.00;99.90
7366;DHT22;3723;52.220;8.792;2024-03-08T10:41:53;10.10;99.90
7366;DHT22;3723;52.220;8.792;2024-03-08T10:44:40;10.00;99.90
7366;DHT22;3723;52.220;8.792;2024-03-08T10:47:17;10.20;99.90
7366;DHT22;3723;52.220;8.792;2024-03-08T10:49:51;10.50;99.90
7366;DHT22;3723;52.220;8.792;2024-03-08T10:52:22;10.50;99.90
7366;DHT22;3723;52.220;8.792;2024-03-08T10:54:48;10.90;99.90
7366;DHT22;3723;52.220;8.792;2024-03-08T10:57:18;11.10;99.90
7366;DHT22;3723;52.220;8.792;2024-03-08T10:59:49;10.90;99.90
7366;DHT22;3723;52.220;8.792;2024-03-08T11:02:19;11.10;99.90
7366;DHT22;3723;52.220;8.792;2024-03-08T11:04:46;11.30;99.90
7366;DHT22;3723;52.220;8.792;2024-03-08T11:07:14;11.40;99.90
7366;DHT22;3723;52.220;8.792;2024-03-08T11:09:47;11.40;99.90
7366;DHT22;3723;52.220;8.792;2024-03-08T11:12:25;11.30;99.90
7366;DHT22;3723;52.220;8.792;2024-03-08T11:14:55;11.10;99.90
7366;DHT22;3723;52.220;8.792;2024-03-08T11:17:45;11.40;99.90
7366;DHT22;3723;52.220;8.792;2024-03-08T11:20:13;11.60;99.90
7366;DHT22;3723;52.220;8.792;2024-03-08T11:22:42;11.90;99.90
7366;DHT22;3723;52.220;8.792;2024-03-08T11:25:34;11.90;99.90
7366;DHT22;3723;52.220;8.792;2024-03-08T11:28:11;11.80;99.90
7366;DHT22;3723;52.220;8.792;2024-03-08T11:30:43;11.60;99.90
7366;DHT22;3723;52.220;8.792;2024-03-08T11:33:11;11.30;99.90
7366;DHT22;3723;52.220;8.792;2024-03-08T11:35:39;11.30;99.90
7366;DHT22;3723;52.220;8.792;2024-03-08T11:38:08;11.00;99.90
7366;DHT22;3723;52.220;8.792;2024-03-08T11:40:36;11.00;99.90
7366;DHT22;3723;52.220;8.792;2024-03-08T11:43:03;11.10;99.90
7366;DHT22;3723;52.220;8.792;2024-03-08T11:45:33;11.10;99.90
7366;DHT22;3723;52.220;8.792;2024-03-08T11:48:02;11.10;99.90
7366;DHT22;3723;52.220;8.792;2024-03-08T11:50:30;11.20;99.90
7366;DHT22;3723;52.220;8.792;2024-03-08T11:53:01;11.30;99.90
7366;DHT22;3723;52.220;8.792;2024-03-08T11:55:29;11.40;99.90
7366;DHT22;3723;52.220;8.792;2024-03-08T11:58:02;11.60;99.90
7366;DHT22;3723;52.220;8.792;2024-03-08T12:00:30;11.60;99.90
7366;DHT22;3723;52.220;8.792;2024-03-08T12:03:04;11.70;99.90
7366;DHT22;3723;52.220;8.792;2024-03-08T12:05:33;11.80;99.90
7366;DHT22;3723;52.220;8.792;2024-03-08T12:08:00;11.90;99.90
7366;DHT22;3723;52.220;8.792;2024-03-08T12:10:27;11.90;99.90
7366;DHT22;3723;52.220;8.792;2024-03-08T12:12:56;11.80;99.90
7366;DHT22;3723;52.220;8.792;2024-03-08T12:15:27;11.70;99.90
7366;DHT22;3723;52.220;8.792;2024-03-08T12:17:55;11.80;99.90
7366;DHT22;3723;52.220;8.792;2024-03-08T12:20:24;11.90;99.90
7366;DHT22;3723;52.220;8.792;2024-03-08T12:22:52;12.20;99.90
7366;DHT22;3723;52.220;8.792;2024-03-08T12:25:22;12.30;99.90
7366;DHT22;3723;52.220;8.792;2024-03-08T12:27:49;12.10;99.90
7366;DHT22;3723;52.220;8.792;2024-03-08T12:30:22;12.30;99.90
7366;DHT22;3723;52.220;8.792;2024-03-08T12:32:55;12.30;99.90
7366;DHT22;3723;52.220;8.792;2024-03-08T12:35:24;12.50;99.90
7366;DHT22;3723;52.220;8.792;2024-03-08T12:37:53;12.50;99.90
7366;DHT22;3723;52.220;8.792;2024-03-08T12:40:25;12.60;99.90
7366;DHT22;3723;52.220;8.792;2024-03-08T12:42:54;12.30;99.90
7366;DHT22;3723;52.220;8.792;2024-03-08T12:45:20;12.00;99.90
7366;DHT22;3723;52.220;8.792;2024-03-08T12:47:49;12.10;99.90
7366;DHT22;3723;52.220;8.792;2024-03-08T12:50:18;12.40;99.90
7366;DHT22;3723;52.220;8.792;2024-03-08T12:52:44;12.50;99.90
7366;DHT22;3723;52.220;8.792;2024-03-08T12:55:11;12.30;99.90
7366;DHT22;3723;52.220;8.792;2024-03-08T12:57:39;12.20;99.90
7366;DHT22;3723;52.220;8.792;2024-03-08T13:00:07;12.40;99.90
7366;DHT22;3723;52.220;8.792;2024-03-08T13:02:39;12.50;99.90
7366;DHT22;3723;52.220;8.792;2024-03-08T13:05:06;12.40;99.90
7366;DHT22;3723;52.220;8.792;2024-03-08T13:07:37;12.30;99.90
7366;DHT22;3723;52.220;8.792;2024-03-08T13:10:04;12.10;99.90
7366;DHT22;3723;52.220;8.792;2024-03-08T13:12:32;12.20;99.90
7366;DHT22;3723;52.220;8.792;2024-03-08T13:15:01;12.10;99.90
7366;DHT22;3723;52.220;8.792;2024-03-08T13:17:30;12.40;99.90
7366;DHT22;3723;52.220;8.792;2024-03-08T13:19:57;12.50;99.90
7366;DHT22;3723;52.220;8.792;2024-03-08T13:22:25;12.50;99.90
7366;DHT22;3723;52.220;8.792;2024-03-08T13:24:54;12.30;99.90
7366;DHT22;3723;52.220;8.792;2024-03-08T13:27:21;12.30;99.90
7366;DHT22;3723;52.220;8.792;2024-03-08T13:29:49;12.00;99.90
7366;DHT22;3723;52.220;8.792;2024-03-08T13:32:17;12.20;99.90
7366;DHT22;3723;52.220;8.792;2024-03-08T13:34:46;12.10;99.90
7366;DHT22;3723;52.220;8.792;2024-03-08T13:37:16;12.00;99.90
7366;DHT22;3723;52.220;8.792;2024-03-08T13:39:43;12.20;99.90
7366;DHT22;3723;52.220;8.792;2024-03-08T13:42:12;12.30;99.90
7366;DHT22;3723;52.220;8.792;2024-03-08T13:44:43;12.50;99.90
7366;DHT22;3723;52.220;8.792;2024-03-08T13:47:11;12.40;99.90
7366;DHT22;3723;52.220;8.792;2024-03-08T13:49:39;12.50;99.90
7366;DHT22;3723;52.220;8.792;2024-03-08T13:52:06;12.10;99.90
7366;DHT22;3723;52.220;8.792;2024-03-08T13:54:34;11.90;99.90
7366;DHT22;3723;52.220;8.792;2024-03-08T13:57:01;12.00;99.90
7366;DHT22;3723;52.220;8.792;2024-03-08T13:59:30;12.10;99.90
7366;DHT22;3723;52.220;8.792;2024-03-08T14:01:58;12.10;99.90
7366;DHT22;3723;52.220;8.792;2024-03-08T14:04:27;12.10;99.90
7366;DHT22;3723;52.220;8.792;2024-03-08T14:06:54;11.80;99.90
7366;DHT22;3723;52.220;8.792;2024-03-08T14:09:25;11.90;99.90
7366;DHT22;3723;52.220;8.792;2024-03-08T14:11:55;11.80;99.90
7366;DHT22;3723;52.220;8.792;2024-03-08T14:14:22;12.10;99.90
7366;DHT22;3723;52.220;8.792;2024-03-08T14:16:51;12.20;99.90
7366;DHT22;3723;52.220;8.792;2024-03-08T14:19:20;11.80;99.90
7366;DHT22;3723;52.220;8.792;2024-03-08T14:21:46;11.70;99.90
7366;DHT22;3723;52.220;8.792;2024-03-08T14:24:15;11.80;99.90
7366;DHT22;3723;52.220;8.792;2024-03-08T14:26:42;11.80;99.90
7366;DHT22;3723;52.220;8.792;2024-03-08T14:29:08;11.70;99.90
7366;DHT22;3723;52.220;8.792;2024-03-08T14:31:36;11.70;99.90
7366;DHT22;3723;52.220;8.792;2024-03-08T14:34:11;11.70;99.90
7366;DHT22;3723;52.220;8.792;2024-03-08T14:36:40;11.50;99.90
7366;DHT22;3723;52.220;8.792;2024-03-08T14:39:11;11.40;99.90
7366;DHT22;3723;52.220;8.792;2024-03-08T14:41:37;11.50;99.90
7366;DHT22;3723;52.220;8.792;2024-03-08T14:44:06;11.40;99.90
7366;DHT22;3723;52.220;8.792;2024-03-08T14:46:34;11.40;99.90
7366;DHT22;3723;52.220;8.792;2024-03-08T14:49:02;11.30;99.90
7366;DHT22;3723;52.220;8.792;2024-03-08T14:51:30;11.40;99.90
7366;DHT22;3723;52.220;8.792;2024-03-08T14:53:59;11.10;99.90
7366;DHT22;3723;52.220;8.792;2024-03-08T14:56:26;11.10;99.90
7366;DHT22;3723;52.220;8.792;2024-03-08T14:58:53;11.10;99.90
7366;DHT22;3723;52.220;8.792;2024-03-08T15:01:23;11.10;99.90
7366;DHT22;3723;52.220;8.792;2024-03-08T15:03:57;11.30;99.90
7366;DHT22;3723;52.220;8.792;2024-03-08T15:06:30;11.00;99.90
7366;DHT22;3723;52.220;8.792;2024-03-08T15:08:59;10.90;99.90
7366;DHT22;3723;52.220;8.792;2024-03-08T15:11:27;11.20;99.90
7366;DHT22;3723;52.220;8.792;2024-03-08T15:13:55;11.20;99.90
7366;DHT22;3723;52.220;8.792;2024-03-08T15:16:24;11.10;99.90
7366;DHT22;3723;52.220;8.792;2024-03-08T15:18:52;11.20;99.90
7366;DHT22;3723;52.220;8.792;2024-03-08T15:21:20;11.20;99.90
7366;DHT22;3723;52.220;8.792;2024-03-08T15:23:52;11.10;99.90
7366;DHT22;3723;52.220;8.792;2024-03-08T15:26:20;11.10;99.90
7366;DHT22;3723;52.220;8.792;2024-03-08T15:28:47;11.20;99.90
7366;DHT22;3723;52.220;8.792;2024-03-08T15:31:17;11.00;99.90
7366;DHT22;3723;52.220;8.792;2024-03-08T15:33:48;11.10;99.90
7366;DHT22;3723;52.220;8.792;2024-03-08T15:36:17;11.10;99.90
7366;DHT22;3723;52.220;8.792;2024-03-08T15:38:46;10.90;99.90
7366;DHT22;3723;52.220;8.792;2024-03-08T15:41:15;10.80;99.90
7366;DHT22;3723;52.220;8.792;2024-03-08T15:43:45;10.80;99.90
7366;DHT22;3723;52.220;8.792;2024-03-08T15:46:13;10.70;99.90
7366;DHT22;3723;52.220;8.792;2024-03-08T15:48:41;10.80;99.90
7366;DHT22;3723;52.220;8.792;2024-03-08T15:51:08;10.80;99.90
7366;DHT22;3723;52.220;8.792;2024-03-08T15:53:37;10.50;99.90
7366;DHT22;3723;52.220;8.792;2024-03-08T15:56:05;10.40;99.90
7366;DHT22;3723;52.220;8.792;2024-03-08T15:58:35;10.30;99.90
7366;DHT22;3723;52.220;8.792;2024-03-08T16:01:02;10.10;99.90
7366;DHT22;3723;52.220;8.792;2024-03-08T16:03:31;10.00;99.90
7366;DHT22;3723;52.220;8.792;2024-03-08T16:05:58;9.90;99.90
7366;DHT22;3723;52.220;8.792;2024-03-08T16:08:25;9.90;99.90
7366;DHT22;3723;52.220;8.792;2024-03-08T16:10:53;9.70;99.90
7366;DHT22;3723;52.220;8.792;2024-03-08T16:13:22;9.70;99.90
7366;DHT22;3723;52.220;8.792;2024-03-08T16:15:52;9.70;99.90
7366;DHT22;3723;52.220;8.792;2024-03-08T16:18:20;9.70;99.90